• Join FlightAware (Why Join?)
  • Login
  • US Flag 
05:15PM EDT


 

Airport Tracker/Info


-or-


 

Live Flight TrackerFlight Track Log ✈ FLG4123 ✈ 31-Jan-2014 ✈ KFWA - KDTW

Flight Track Log - Related Links

Times and Time Zones

All times are in EST time to prevent confusion due to time zone crossing. See the FLG4123 flight status page for this flight to view local times or setup timezone preferences in your user account.

Time Position Orientation Groundspeed Altitude Reporting Facility
EST Latitude Longitude Course Direction KTS MPH feet Rate Location/Type
08:52AM 41.0067 -85.2056 42° Northeast 239 275 3,800  Level Cleveland Center
08:53AM 41.0419 -85.1272 59° Northeast 242 278 5,800 2,100 Climbing Cleveland Center
08:54AM 41.1003 -85.0564 42° Northeast 281 323 8,200 2,100 Climbing Chicago Center
08:55AM 41.1808 -84.9714 38° Northeast 304 350 10,300 1,320 Climbing Chicago Center
08:56AM 41.2589 -84.8864 39° Northeast 355 409 11,000 300 Climbing Chicago Center
08:57AM 41.6530 -84.4497 42° Northeast  Level FlightAware Approximate
08:57AM 41.3358 -84.8056 38° Northeast 356 410 11,000  Level Chicago Center
08:58AM 41.4153 -84.7183 39° Northeast 369 425 11,000  Level Chicago Center
08:59AM 41.4850 -84.6175 47° Northeast 375 432 11,000  Level Chicago Center
09:00AM 41.5478 -84.5117 52° Northeast 367 422 11,000  Level Chicago Center
09:01AM 41.6236 -84.3825 52° Northeast 368 423 11,000  Level Chicago Center
09:02AM 41.6867 -84.2758 52° Northeast 369 425 11,000  Level Cleveland Center
09:03AM 41.7136 -84.2300 52° Northeast 369 425 11,000  Level Cleveland Center
09:03AM 41.7483 -84.1717 51° Northeast 369 425 11,000  Level Cleveland Center
09:04AM 41.7772 -84.1250 50° Northeast 369 425 11,000  Level Cleveland Center
09:04AM 41.8108 -84.0650 53° Northeast 368 423 11,000  Level Cleveland Center
09:05AM 41.8389 -84.0164 52° Northeast 369 425 11,000  Level Cleveland Center
09:05AM 41.8744 -83.9561 52° Northeast 369 425 11,000  Level Cleveland Center
09:06AM 41.9111 -83.9067 45° Northeast 368 423 11,000  Level Cleveland Center
09:06AM 41.9450 -83.8564 48° Northeast 369 425 11,000  Level Cleveland Center
09:07AM 41.9822 -83.8047 46° Northeast 371 427 11,000  Level Cleveland Center
09:07AM 42.0297 -83.7383 46° Northeast 369 425 11,000  Level Cleveland Center
09:08AM 42.0536 -83.7028 48° Northeast 373 429 11,000  Level Cleveland Center
09:08AM 42.1017 -83.6372 45° Northeast 371 427 11,000  Level Cleveland Center
09:09AM 42.1222 -83.6058 49° Northeast 347 399 11,000  Level Cleveland Center
09:09AM 42.1703 -83.5642 33° Northeast 304 350 11,000  Level Cleveland Center
09:10AM 42.1894 -83.5508 27° Northeast 244 281 11,000  Level Cleveland Center
09:10AM 42.2378 -83.5172 27° Northeast 276 318 11,000 -420 Level Cleveland Center
09:11AM 42.2625 -83.5019 25° Northeast 264 304 10,600 -1,620 Descending Cleveland Center
09:11AM 42.3053 -83.4736 26° Northeast 271 312 9,400 -1,920 Descending Cleveland Center
09:12AM 42.3269 -83.4575 29° Northeast 248 285 8,700 -1,680 Descending Cleveland Center
09:12AM 42.3672 -83.4314 26° Northeast 253 291 7,700 -1,260 Descending Cleveland Center
09:13AM 42.3950 -83.4164 22° Northeast 247 284 7,300 -1,020 Descending Cleveland Center
09:14AM 42.4317 -83.3922 26° Northeast 250 288 6,700 -1,500 Descending Cleveland Center
09:14AM 42.4589 -83.3775 22° Northeast 233 268 5,800 -1,800 Descending Cleveland Center
09:15AM 42.4767 -83.3356 60° Northeast 242 278 4,900 -1,500 Descending Cleveland Center
09:15AM 42.4756 -83.2950 92° East 243 280 4,300 -780 Descending Cleveland Center
09:16AM 42.4722 -83.2481 95° East 236 272 4,100 -240 Descending Cleveland Center
09:16AM 42.4531 -83.2353 154° Southeast 177 204 4,100 -120 Level Cleveland Center
09:17AM 42.4242 -83.2411 188° South 183 211 4,000 -120 Descending Cleveland Center
09:17AM 42.4042 -83.2453 189° South 184 212 4,000  Level Cleveland Center
09:18AM 42.3653 -83.2642 200° South 182 209 4,000 -360 Level Cleveland Center
09:18AM 42.3517 -83.2719 203° Southwest 174 200 3,600 -960 Descending Cleveland Center
09:19AM 42.3222 -83.2953 210° Southwest 174 200 3,000 -840 Descending Cleveland Center
09:19AM 42.3072 -83.3053 206° Southwest 179 206 2,800 -900 Descending Cleveland Center
09:20AM 42.2803 -83.3264 210° Southwest 174 200 2,100 -1,020 Descending Cleveland Center
09:20AM 42.2694 -83.3336 206° Southwest 140 161 1,800 -900 Descending Cleveland Center
09:21AM 42.2475 -83.3511 211° Southwest 148 170 1,200 -840 Descending Cleveland Center
09:21AM 42.2361 -83.3572 202° Southwest 130 150 1,000 -540 Descending Cleveland Center
09:22AM 42.2192 -83.3725 214° Southwest 140 161 700 -420 Descending Cleveland Center